10chiemaru — JD2376 — position and weather

sailwx.info

Track history (hours):
 
Tides and Currents Weather Stations Pressure Air Temp Water Temp Dewpoint Dewpoint Depression Visibility Wind Speed Wind Dir Waves Ship Positions

10chiemaru

Last reported at 2014-Jul-24 17:32 UTC. Time now 2014-Jul-24 17:44 UTC.
Position N 35°29' E 139°55'.

Length 72 m; draft 3.8 m.

Type: Ship. MMSI: 431000147.

Date/timePositionNaut miles runAvg speedWind from/ knotsBaromVisibWave heightAir tempDewpointWater temp
2014-Jul-24 17:32N 35°29' E 139°55'0 0.0
2014-Jul-24 16:33N 35°29' E 139°55'0 0.0
2014-Jul-24 15:33N 35°29' E 139°55'0 0.0
2014-Jul-24 14:33N 35°29' E 139°55'0 0.0
2014-Jul-24 13:33N 35°29' E 139°55'0 0.0
2014-Jul-24 12:33N 35°29' E 139°55'0 0.0
2014-Jul-24 11:33N 35°29' E 139°55'0 0.0
2014-Jul-24 10:33N 35°29' E 139°55'0 0.0
2014-Jul-24 09:33N 35°29' E 139°55'0 0.0
2014-Jul-24 08:33N 35°29' E 139°55'8 7.7
2014-Jul-24 07:33N 35°27' E 139°46'4 4.4
2014-Jul-24 06:33N 35°28' E 139°40'0 0.0
2014-Jul-24 05:33N 35°28' E 139°40'0 0.0
2014-Jul-24 04:33N 35°28' E 139°40'1 1.4
2014-Jul-24 03:33N 35°27' E 139°41'4 4.2
2014-Jul-24 02:33N 35°24' E 139°45'0 0.0
2014-Jul-24 01:33N 35°24' E 139°45'0 0.0
2014-Jul-24 00:33N 35°24' E 139°45'0 0.1
2014-Jul-23 23:33N 35°24' E 139°45'0 0.1
2014-Jul-23 22:33N 35°24' E 139°45'0 0.1
2014-Jul-23 21:33N 35°24' E 139°45'0 0.0
2014-Jul-23 20:33N 35°24' E 139°45'0 0.0
2014-Jul-23 19:33N 35°24' E 139°45'0 0.0
2014-Jul-23 18:33N 35°24' E 139°45'0 0.0
2014-Jul-23 17:33N 35°24' E 139°45'0 0.0
2014-Jul-23 16:33N 35°24' E 139°45'0 0.0
2014-Jul-23 15:33N 35°24' E 139°45'0 0.0
2014-Jul-23 14:33N 35°24' E 139°45'0 0.0
2014-Jul-23 13:33N 35°24' E 139°45'0 0.0
2014-Jul-23 12:33N 35°24' E 139°45'0 0.0
2014-Jul-23 11:33N 35°24' E 139°45'0 0.0
2014-Jul-23 10:33N 35°24' E 139°45'0 0.0
2014-Jul-23 09:33N 35°24' E 139°45'0 0.0
2014-Jul-23 08:33N 35°24' E 139°45'0 0.0
2014-Jul-23 07:33N 35°24' E 139°45'0 0.0
2014-Jul-23 06:33N 35°24' E 139°45'5 4.8
2014-Jul-23 05:33N 35°29' E 139°48'3 3.1
2014-Jul-23 04:33N 35°31' E 139°46'0 0.0
2014-Jul-23 03:33N 35°31' E 139°46'0 0.0
2014-Jul-23 02:33N 35°31' E 139°46'0 0.0
2014-Jul-23 01:33N 35°31' E 139°46'0 0.0
2014-Jul-23 00:33N 35°31' E 139°46'3 2.6
2014-Jul-22 23:33N 35°30' E 139°49'1 1.2
2014-Jul-22 22:33N 35°29' E 139°48'0 0.1
2014-Jul-22 21:33N 35°29' E 139°48'0 0.0
2014-Jul-22 20:33N 35°29' E 139°48'0 0.0
2014-Jul-22 19:33N 35°29' E 139°48'0 0.0
2014-Jul-22 18:33N 35°29' E 139°48'0 0.0
2014-Jul-22 17:33N 35°29' E 139°48'0 0.0
2014-Jul-22 16:33N 35°29' E 139°48'0 0.0
2014-Jul-22 15:33N 35°29' E 139°48'0 0.0
2014-Jul-22 14:33N 35°29' E 139°48'0 0.0
2014-Jul-22 13:33N 35°29' E 139°48'0 0.0
2014-Jul-22 12:33N 35°29' E 139°48'1 0.8
2014-Jul-22 11:33N 35°29' E 139°48'2 2.4
2014-Jul-22 10:33N 35°31' E 139°46'0 0.0
2014-Jul-22 09:33N 35°31' E 139°46'0 0.0
2014-Jul-22 08:33N 35°31' E 139°46'0 0.0
2014-Jul-22 07:33N 35°31' E 139°46'3 3.2
2014-Jul-22 06:33N 35°29' E 139°49'0 0.3
2014-Jul-22 05:33N 35°29' E 139°49'0 0.0
2014-Jul-22 04:33N 35°29' E 139°49'0 0.0
2014-Jul-22 03:33N 35°29' E 139°49'0 0.0
2014-Jul-22 02:33N 35°29' E 139°49'0 0.0
2014-Jul-22 01:33N 35°29' E 139°49'0 0.0
2014-Jul-22 00:33N 35°29' E 139°49'0 0.0
2014-Jul-21 23:33N 35°28' E 139°49'0 0.0
2014-Jul-21 22:33N 35°28' E 139°49'0 0.0
2014-Jul-21 21:33N 35°28' E 139°49'0 0.0
2014-Jul-21 20:33N 35°28' E 139°49'0 0.0
2014-Jul-21 20:18N 35°28' E 139°49'0 0.0
2014-Jul-21 19:33N 35°29' E 139°49'0 0.0
2014-Jul-21 18:33N 35°29' E 139°49'0 0.0
2014-Jul-21 17:33N 35°28' E 139°49'0 0.0
2014-Jul-21 16:33N 35°28' E 139°49'0 0.0
2014-Jul-21 15:33N 35°28' E 139°49'5 5.4
2014-Jul-21 14:33N 35°24' E 139°46'1111.0
2014-Jul-21 13:33N 35°13' E 139°47'1212.0
2014-Jul-21 12:33N 35°01' E 139°44'10 9.5
2014-Jul-21 11:33N 34°52' E 139°49'79 9.8
2014-Jul-21 03:29N 35°58' E 140°43'4 0.9
2014-Jul-20 23:14N 35°55' E 140°41'4 6.1
2014-Jul-20 22:33N 35°58' E 140°43'10 0.3
2014-Jul-19 14:09N 35°58' E 140°55'712.2
2014-Jul-19 13:33N 35°50' E 140°56'1111.2
2014-Jul-19 12:33N 35°39' E 140°54'1612.1
2014-Jul-19 11:13N 35°26' E 140°43'1412.4
2014-Jul-19 10:07N 35°15' E 140°33'1912.1
2014-Jul-19 08:33N 35°02' E 140°16'1312.5
2014-Jul-19 07:33N 34°55' E 140°03'1211.6
2014-Jul-19 06:31N 34°52' E 139°49'1212.7
2014-Jul-19 05:33N 35°03' E 139°44'1312.9
2014-Jul-19 04:34N 35°16' E 139°46'10 9.9
2014-Jul-19 03:33N 35°24' E 139°40'0 0.0
2014-Jul-19 02:33N 35°24' E 139°40'0 0.0
2014-Jul-19 01:33N 35°24' E 139°40'0 0.0
2014-Jul-19 00:33N 35°24' E 139°40'0 0.0
2014-Jul-18 23:33N 35°24' E 139°40'4 4.2
2014-Jul-18 22:33N 35°22' E 139°44'0 0.0
2014-Jul-18 21:33N 35°22' E 139°44'0 0.0
2014-Jul-18 20:33N 35°22' E 139°44'0 0.0
2014-Jul-18 19:33N 35°22' E 139°44'0 0.0
2014-Jul-18 18:33N 35°22' E 139°44'0 0.0
2014-Jul-18 17:33N 35°22' E 139°44'0 0.0
2014-Jul-18 16:33N 35°22' E 139°44'0 0.0
2014-Jul-18 15:33N 35°22' E 139°44'5 5.1
2014-Jul-18 14:33N 35°17' E 139°45'1111.2
2014-Jul-18 13:33N 35°06' E 139°44'33 1.6
2014-Jul-17 16:28N 34°49' E 139°10'1211.1
2014-Jul-17 15:24N 34°56' E 139°21'1012.3
2014-Jul-17 14:33N 35°02' E 139°32'1211.9
2014-Jul-17 13:34N 35°09' E 139°44'1211.6
2014-Jul-17 12:34N 35°20' E 139°42'1211.7
2014-Jul-17 11:33N 35°30' E 139°51'8 8.0
2014-Jul-17 10:33N 35°28' E 140°01'0 0.0
2014-Jul-17 09:34N 35°28' E 140°01'0 0.0
2014-Jul-17 08:33N 35°28' E 140°01'0 0.0
2014-Jul-17 07:33N 35°28' E 140°01'0 0.0
2014-Jul-17 06:33N 35°28' E 140°01'0 0.0
2014-Jul-17 05:33N 35°28' E 140°01'8 7.8
2014-Jul-17 04:33N 35°28' E 139°51'1010.5
2014-Jul-17 03:34N 35°24' E 139°40'0 0.2
2014-Jul-17 02:33N 35°24' E 139°40'0 0.0
2014-Jul-17 01:33N 35°24' E 139°40'0 0.1
2014-Jul-17 00:33N 35°24' E 139°40'4 3.8
2014-Jul-16 23:34N 35°23' E 139°44'0 0.0
2014-Jul-16 22:33N 35°23' E 139°44'0 0.0
2014-Jul-16 21:33N 35°24' E 139°44'0 0.1
2014-Jul-16 20:33N 35°24' E 139°44'0 0.0
2014-Jul-16 19:33N 35°24' E 139°44'0 0.0
2014-Jul-16 18:33N 35°24' E 139°44'0 0.1
2014-Jul-16 17:33N 35°24' E 139°44'0 0.1
2014-Jul-16 16:33N 35°23' E 139°44'0 0.0
2014-Jul-16 15:33N 35°23' E 139°44'0 0.0
2014-Jul-16 14:33N 35°23' E 139°44'0 0.1
2014-Jul-16 13:33N 35°24' E 139°44'0 0.0
2014-Jul-16 12:33N 35°24' E 139°44'0 0.0
2014-Jul-16 11:33N 35°24' E 139°44'0 0.1
2014-Jul-16 10:33N 35°24' E 139°44'0 0.1
2014-Jul-16 09:33N 35°24' E 139°44'0 0.0
2014-Jul-16 08:33N 35°24' E 139°44'0 0.0
2014-Jul-16 07:33N 35°24' E 139°44'2 1.5
2014-Jul-16 06:33N 35°25' E 139°46'6 6.4
2014-Jul-16 05:33N 35°31' E 139°46'0 0.0
2014-Jul-16 04:33N 35°31' E 139°46'0 0.0
2014-Jul-16 03:33N 35°31' E 139°46'0 0.0
2014-Jul-16 02:33N 35°31' E 139°46'0 0.0
2014-Jul-16 01:33N 35°31' E 139°46'2 1.6
2014-Jul-16 00:33N 35°30' E 139°48'1 1.4
2014-Jul-15 23:33N 35°29' E 139°48'0 0.0
2014-Jul-15 22:33N 35°29' E 139°48'0 0.1
2014-Jul-15 21:33N 35°29' E 139°48'0 0.0
2014-Jul-15 20:33N 35°29' E 139°48'0 0.0
2014-Jul-15 19:33N 35°29' E 139°48'0 0.0
2014-Jul-15 18:33N 35°29' E 139°48'0 0.1
2014-Jul-15 17:33N 35°29' E 139°48'0 0.1
2014-Jul-15 16:33N 35°29' E 139°48'0 0.0
2014-Jul-15 15:33N 35°29' E 139°48'0 0.0
2014-Jul-15 14:33N 35°29' E 139°48'5 5.5
2014-Jul-15 13:33N 35°24' E 139°46'1111.0
2014-Jul-15 12:33N 35°13' E 139°47'1212.4
2014-Jul-15 11:33N 35°02' E 139°38'1413.6
2014-Jul-15 10:30N 34°54' E 139°24'  
Track history (hours):
 
Tides and Currents Weather Stations Pressure Air Temp Water Temp Dewpoint Dewpoint Depression Visibility Wind Speed Wind Dir Waves Ship Positions

10chiemaru

Last reported at 2014-Jul-24 17:32 UTC. Time now 2014-Jul-24 17:44 UTC.
Position N 35°29' E 139°55'.

Length 72 m; draft 3.8 m.

Type: Ship. MMSI: 431000147.

Date/timePositionNaut miles runAvg speedWind from/ knotsBaromVisibWave heightAir tempDewpointWater temp
2014-Jul-24 17:32N 35°29' E 139°55'0 0.0
2014-Jul-24 16:33N 35°29' E 139°55'0 0.0
2014-Jul-24 15:33N 35°29' E 139°55'0 0.0
2014-Jul-24 14:33N 35°29' E 139°55'0 0.0
2014-Jul-24 13:33N 35°29' E 139°55'0 0.0
2014-Jul-24 12:33N 35°29' E 139°55'0 0.0
2014-Jul-24 11:33N 35°29' E 139°55'0 0.0
2014-Jul-24 10:33N 35°29' E 139°55'0 0.0
2014-Jul-24 09:33N 35°29' E 139°55'0 0.0
2014-Jul-24 08:33N 35°29' E 139°55'8 7.7
2014-Jul-24 07:33N 35°27' E 139°46'4 4.4
2014-Jul-24 06:33N 35°28' E 139°40'0 0.0
2014-Jul-24 05:33N 35°28' E 139°40'0 0.0
2014-Jul-24 04:33N 35°28' E 139°40'1 1.4
2014-Jul-24 03:33N 35°27' E 139°41'4 4.2
2014-Jul-24 02:33N 35°24' E 139°45'0 0.0
2014-Jul-24 01:33N 35°24' E 139°45'0 0.0
2014-Jul-24 00:33N 35°24' E 139°45'0 0.1
2014-Jul-23 23:33N 35°24' E 139°45'0 0.1
2014-Jul-23 22:33N 35°24' E 139°45'0 0.1
2014-Jul-23 21:33N 35°24' E 139°45'0 0.0
2014-Jul-23 20:33N 35°24' E 139°45'0 0.0
2014-Jul-23 19:33N 35°24' E 139°45'0 0.0
2014-Jul-23 18:33N 35°24' E 139°45'0 0.0
2014-Jul-23 17:33N 35°24' E 139°45'0 0.0
2014-Jul-23 16:33N 35°24' E 139°45'0 0.0
2014-Jul-23 15:33N 35°24' E 139°45'0 0.0
2014-Jul-23 14:33N 35°24' E 139°45'0 0.0
2014-Jul-23 13:33N 35°24' E 139°45'0 0.0
2014-Jul-23 12:33N 35°24' E 139°45'0 0.0
2014-Jul-23 11:33N 35°24' E 139°45'0 0.0
2014-Jul-23 10:33N 35°24' E 139°45'0 0.0
2014-Jul-23 09:33N 35°24' E 139°45'0 0.0
2014-Jul-23 08:33N 35°24' E 139°45'0 0.0
2014-Jul-23 07:33N 35°24' E 139°45'0 0.0
2014-Jul-23 06:33N 35°24' E 139°45'5 4.8
2014-Jul-23 05:33N 35°29' E 139°48'3 3.1
2014-Jul-23 04:33N 35°31' E 139°46'0 0.0
2014-Jul-23 03:33N 35°31' E 139°46'0 0.0
2014-Jul-23 02:33N 35°31' E 139°46'0 0.0
2014-Jul-23 01:33N 35°31' E 139°46'0 0.0
2014-Jul-23 00:33N 35°31' E 139°46'3 2.6
2014-Jul-22 23:33N 35°30' E 139°49'1 1.2
2014-Jul-22 22:33N 35°29' E 139°48'0 0.1
2014-Jul-22 21:33N 35°29' E 139°48'0 0.0
2014-Jul-22 20:33N 35°29' E 139°48'0 0.0
2014-Jul-22 19:33N 35°29' E 139°48'0 0.0
2014-Jul-22 18:33N 35°29' E 139°48'0 0.0
2014-Jul-22 17:33N 35°29' E 139°48'0 0.0
2014-Jul-22 16:33N 35°29' E 139°48'0 0.0
2014-Jul-22 15:33N 35°29' E 139°48'0 0.0
2014-Jul-22 14:33N 35°29' E 139°48'0 0.0
2014-Jul-22 13:33N 35°29' E 139°48'0 0.0
2014-Jul-22 12:33N 35°29' E 139°48'1 0.8
2014-Jul-22 11:33N 35°29' E 139°48'2 2.4
2014-Jul-22 10:33N 35°31' E 139°46'0 0.0
2014-Jul-22 09:33N 35°31' E 139°46'0 0.0
2014-Jul-22 08:33N 35°31' E 139°46'0 0.0
2014-Jul-22 07:33N 35°31' E 139°46'3 3.2
2014-Jul-22 06:33N 35°29' E 139°49'0 0.3
2014-Jul-22 05:33N 35°29' E 139°49'0 0.0
2014-Jul-22 04:33N 35°29' E 139°49'0 0.0
2014-Jul-22 03:33N 35°29' E 139°49'0 0.0
2014-Jul-22 02:33N 35°29' E 139°49'0 0.0
2014-Jul-22 01:33N 35°29' E 139°49'0 0.0
2014-Jul-22 00:33N 35°29' E 139°49'0 0.0
2014-Jul-21 23:33N 35°28' E 139°49'0 0.0
2014-Jul-21 22:33N 35°28' E 139°49'0 0.0
2014-Jul-21 21:33N 35°28' E 139°49'0 0.0
2014-Jul-21 20:33N 35°28' E 139°49'0 0.0
2014-Jul-21 20:18N 35°28' E 139°49'0 0.0
2014-Jul-21 19:33N 35°29' E 139°49'0 0.0
2014-Jul-21 18:33N 35°29' E 139°49'0 0.0
2014-Jul-21 17:33N 35°28' E 139°49'0 0.0
2014-Jul-21 16:33N 35°28' E 139°49'0 0.0
2014-Jul-21 15:33N 35°28' E 139°49'5 5.4
2014-Jul-21 14:33N 35°24' E 139°46'1111.0
2014-Jul-21 13:33N 35°13' E 139°47'1212.0
2014-Jul-21 12:33N 35°01' E 139°44'10 9.5
2014-Jul-21 11:33N 34°52' E 139°49'79 9.8
2014-Jul-21 03:29N 35°58' E 140°43'4 0.9
2014-Jul-20 23:14N 35°55' E 140°41'4 6.1
2014-Jul-20 22:33N 35°58' E 140°43'10 0.3
2014-Jul-19 14:09N 35°58' E 140°55'712.2
2014-Jul-19 13:33N 35°50' E 140°56'1111.2
2014-Jul-19 12:33N 35°39' E 140°54'1612.1
2014-Jul-19 11:13N 35°26' E 140°43'1412.4
2014-Jul-19 10:07N 35°15' E 140°33'1912.1
2014-Jul-19 08:33N 35°02' E 140°16'1312.5
2014-Jul-19 07:33N 34°55' E 140°03'1211.6
2014-Jul-19 06:31N 34°52' E 139°49'1212.7
2014-Jul-19 05:33N 35°03' E 139°44'1312.9
2014-Jul-19 04:34N 35°16' E 139°46'10 9.9
2014-Jul-19 03:33N 35°24' E 139°40'0 0.0
2014-Jul-19 02:33N 35°24' E 139°40'0 0.0
2014-Jul-19 01:33N 35°24' E 139°40'0 0.0
2014-Jul-19 00:33N 35°24' E 139°40'0 0.0
2014-Jul-18 23:33N 35°24' E 139°40'4 4.2
2014-Jul-18 22:33N 35°22' E 139°44'0 0.0
2014-Jul-18 21:33N 35°22' E 139°44'0 0.0
2014-Jul-18 20:33N 35°22' E 139°44'0 0.0
2014-Jul-18 19:33N 35°22' E 139°44'0 0.0
2014-Jul-18 18:33N 35°22' E 139°44'0 0.0
2014-Jul-18 17:33N 35°22' E 139°44'0 0.0
2014-Jul-18 16:33N 35°22' E 139°44'0 0.0
2014-Jul-18 15:33N 35°22' E 139°44'5 5.1
2014-Jul-18 14:33N 35°17' E 139°45'1111.2
2014-Jul-18 13:33N 35°06' E 139°44'33 1.6
2014-Jul-17 16:28N 34°49' E 139°10'1211.1
2014-Jul-17 15:24N 34°56' E 139°21'1012.3
2014-Jul-17 14:33N 35°02' E 139°32'1211.9
2014-Jul-17 13:34N 35°09' E 139°44'1211.6
2014-Jul-17 12:34N 35°20' E 139°42'1211.7
2014-Jul-17 11:33N 35°30' E 139°51'8 8.0
2014-Jul-17 10:33N 35°28' E 140°01'0 0.0
2014-Jul-17 09:34N 35°28' E 140°01'0 0.0
2014-Jul-17 08:33N 35°28' E 140°01'0 0.0
2014-Jul-17 07:33N 35°28' E 140°01'0 0.0
2014-Jul-17 06:33N 35°28' E 140°01'0 0.0
2014-Jul-17 05:33N 35°28' E 140°01'8 7.8
2014-Jul-17 04:33N 35°28' E 139°51'1010.5
2014-Jul-17 03:34N 35°24' E 139°40'0 0.2
2014-Jul-17 02:33N 35°24' E 139°40'0 0.0
2014-Jul-17 01:33N 35°24' E 139°40'0 0.1
2014-Jul-17 00:33N 35°24' E 139°40'4 3.8
2014-Jul-16 23:34N 35°23' E 139°44'0 0.0
2014-Jul-16 22:33N 35°23' E 139°44'0 0.0
2014-Jul-16 21:33N 35°24' E 139°44'0 0.1
2014-Jul-16 20:33N 35°24' E 139°44'0 0.0
2014-Jul-16 19:33N 35°24' E 139°44'0 0.0
2014-Jul-16 18:33N 35°24' E 139°44'0 0.1
2014-Jul-16 17:33N 35°24' E 139°44'0 0.1
2014-Jul-16 16:33N 35°23' E 139°44'0 0.0
2014-Jul-16 15:33N 35°23' E 139°44'0 0.0
2014-Jul-16 14:33N 35°23' E 139°44'0 0.1
2014-Jul-16 13:33N 35°24' E 139°44'0 0.0
2014-Jul-16 12:33N 35°24' E 139°44'0 0.0
2014-Jul-16 11:33N 35°24' E 139°44'0 0.1
2014-Jul-16 10:33N 35°24' E 139°44'0 0.1
2014-Jul-16 09:33N 35°24' E 139°44'0 0.0
2014-Jul-16 08:33N 35°24' E 139°44'0 0.0
2014-Jul-16 07:33N 35°24' E 139°44'2 1.5
2014-Jul-16 06:33N 35°25' E 139°46'6 6.4
2014-Jul-16 05:33N 35°31' E 139°46'0 0.0
2014-Jul-16 04:33N 35°31' E 139°46'0 0.0
2014-Jul-16 03:33N 35°31' E 139°46'0 0.0
2014-Jul-16 02:33N 35°31' E 139°46'0 0.0
2014-Jul-16 01:33N 35°31' E 139°46'2 1.6
2014-Jul-16 00:33N 35°30' E 139°48'1 1.4
2014-Jul-15 23:33N 35°29' E 139°48'0 0.0
2014-Jul-15 22:33N 35°29' E 139°48'0 0.1
2014-Jul-15 21:33N 35°29' E 139°48'0 0.0
2014-Jul-15 20:33N 35°29' E 139°48'0 0.0
2014-Jul-15 19:33N 35°29' E 139°48'0 0.0
2014-Jul-15 18:33N 35°29' E 139°48'0 0.1
2014-Jul-15 17:33N 35°29' E 139°48'0 0.1
2014-Jul-15 16:33N 35°29' E 139°48'0 0.0
2014-Jul-15 15:33N 35°29' E 139°48'0 0.0
2014-Jul-15 14:33N 35°29' E 139°48'5 5.5
2014-Jul-15 13:33N 35°24' E 139°46'1111.0
2014-Jul-15 12:33N 35°13' E 139°47'1212.4
2014-Jul-15 11:33N 35°02' E 139°38'1413.6
2014-Jul-15 10:30N 34°54' E 139°24'  

Dump ship's entire track history